sensor_id;sensor_type;location;lat;lon;timestamp;temperature;humidity
74869;DHT22;63419;42.262;12.210;2022-12-10T00:00:08;13.90;99.90
74869;DHT22;63419;42.262;12.210;2022-12-10T00:06:13;13.80;99.90
74869;DHT22;63419;42.262;12.210;2022-12-10T00:08:43;13.80;99.90
74869;DHT22;63419;42.262;12.210;2022-12-10T00:11:13;13.80;99.90
74869;DHT22;63419;42.262;12.210;2022-12-10T00:13:43;13.80;99.90
74869;DHT22;63419;42.262;12.210;2022-12-10T00:16:16;13.80;99.90
74869;DHT22;63419;42.262;12.210;2022-12-10T00:18:45;13.80;99.90
74869;DHT22;63419;42.262;12.210;2022-12-10T00:21:16;13.70;99.90
74869;DHT22;63419;42.262;12.210;2022-12-10T00:23:47;13.70;99.90
74869;DHT22;63419;42.262;12.210;2022-12-10T00:26:24;13.70;99.90
74869;DHT22;63419;42.262;12.210;2022-12-10T00:28:56;13.70;99.90
74869;DHT22;63419;42.262;12.210;2022-12-10T00:31:31;13.70;99.90
74869;DHT22;63419;42.262;12.210;2022-12-10T00:34:04;13.70;99.90
74869;DHT22;63419;42.262;12.210;2022-12-10T00:36:39;13.70;99.90
74869;DHT22;63419;42.262;12.210;2022-12-10T00:39:21;13.70;99.90
74869;DHT22;63419;42.262;12.210;2022-12-10T00:47:13;13.60;99.90
74869;DHT22;63419;42.262;12.210;2022-12-10T00:49:40;13.60;99.90
74869;DHT22;63419;42.262;12.210;2022-12-10T00:52:07;13.60;99.90
74869;DHT22;63419;42.262;12.210;2022-12-10T00:54:36;13.60;99.90
74869;DHT22;63419;42.262;12.210;2022-12-10T00:57:03;13.60;99.90
74869;DHT22;63419;42.262;12.210;2022-12-10T00:59:30;13.50;99.90
74869;DHT22;63419;42.262;12.210;2022-12-10T01:02:16;13.50;99.90
74869;DHT22;63419;42.262;12.210;2022-12-10T01:07:25;13.50;99.90
74869;DHT22;63419;42.262;12.210;2022-12-10T01:09:54;13.50;99.90
74869;DHT22;63419;42.262;12.210;2022-12-10T01:12:21;13.40;99.90
74869;DHT22;63419;42.262;12.210;2022-12-10T01:14:48;13.40;99.90
74869;DHT22;63419;42.262;12.210;2022-12-10T01:17:16;13.50;99.90
74869;DHT22;63419;42.262;12.210;2022-12-10T01:19:43;13.40;99.90
74869;DHT22;63419;42.262;12.210;2022-12-10T01:22:10;13.50;99.90
74869;DHT22;63419;42.262;12.210;2022-12-10T01:27:49;13.40;99.90
74869;DHT22;63419;42.262;12.210;2022-12-10T01:30:16;13.40;99.90
74869;DHT22;63419;42.262;12.210;2022-12-10T01:32:44;13.40;99.90
74869;DHT22;63419;42.262;12.210;2022-12-10T01:35:11;13.40;99.90
74869;DHT22;63419;42.262;12.210;2022-12-10T01:37:38;13.50;99.90
74869;DHT22;63419;42.262;12.210;2022-12-10T01:40:06;13.50;99.90
74869;DHT22;63419;42.262;12.210;2022-12-10T01:42:34;13.40;99.90
74869;DHT22;63419;42.262;12.210;2022-12-10T01:45:05;13.50;99.90
74869;DHT22;63419;42.262;12.210;2022-12-10T01:47:34;13.50;99.90
74869;DHT22;63419;42.262;12.210;2022-12-10T01:50:02;13.40;99.90
74869;DHT22;63419;42.262;12.210;2022-12-10T01:52:32;13.40;99.90
74869;DHT22;63419;42.262;12.210;2022-12-10T01:54:59;13.40;99.90
74869;DHT22;63419;42.262;12.210;2022-12-10T01:57:27;13.40;99.90
74869;DHT22;63419;42.262;12.210;2022-12-10T01:59:58;13.40;99.90
74869;DHT22;63419;42.262;12.210;2022-12-10T02:02:33;13.40;99.90
74869;DHT22;63419;42.262;12.210;2022-12-10T02:05:34;13.40;99.90
74869;DHT22;63419;42.262;12.210;2022-12-10T02:11:41;13.40;99.90
74869;DHT22;63419;42.262;12.210;2022-12-10T02:14:32;13.40;99.90
74869;DHT22;63419;42.262;12.210;2022-12-10T02:17:19;13.30;99.90
74869;DHT22;63419;42.262;12.210;2022-12-10T02:23:14;13.40;99.90
74869;DHT22;63419;42.262;12.210;2022-12-10T02:31:45;13.50;99.90
74869;DHT22;63419;42.262;12.210;2022-12-10T02:34:18;13.40;99.90
74869;DHT22;63419;42.262;12.210;2022-12-10T02:36:51;13.40;99.90
74869;DHT22;63419;42.262;12.210;2022-12-10T02:39:26;13.40;99.90
74869;DHT22;63419;42.262;12.210;2022-12-10T02:41:58;13.40;99.90
74869;DHT22;63419;42.262;12.210;2022-12-10T02:44:28;13.50;99.90
74869;DHT22;63419;42.262;12.210;2022-12-10T02:46:58;13.40;99.90
74869;DHT22;63419;42.262;12.210;2022-12-10T02:49:28;13.40;99.90
74869;DHT22;63419;42.262;12.210;2022-12-10T02:51:57;13.40;99.90
74869;DHT22;63419;42.262;12.210;2022-12-10T02:54:44;13.40;99.90
74869;DHT22;63419;42.262;12.210;2022-12-10T03:08:45;13.40;99.90
74869;DHT22;63419;42.262;12.210;2022-12-10T03:11:22;13.40;99.90
74869;DHT22;63419;42.262;12.210;2022-12-10T03:14:07;13.40;99.90
74869;DHT22;63419;42.262;12.210;2022-12-10T03:16:48;13.40;99.90
74869;DHT22;63419;42.262;12.210;2022-12-10T03:19:26;13.30;99.90
74869;DHT22;63419;42.262;12.210;2022-12-10T03:22:05;13.40;99.90
74869;DHT22;63419;42.262;12.210;2022-12-10T03:24:36;13.30;99.90
74869;DHT22;63419;42.262;12.210;2022-12-10T03:27:05;13.30;99.90
74869;DHT22;63419;42.262;12.210;2022-12-10T03:29:40;13.30;99.90
74869;DHT22;63419;42.262;12.210;2022-12-10T03:32:14;13.40;99.90
74869;DHT22;63419;42.262;12.210;2022-12-10T03:34:44;13.40;99.90
74869;DHT22;63419;42.262;12.210;2022-12-10T03:37:12;13.40;99.90
74869;DHT22;63419;42.262;12.210;2022-12-10T03:39:41;13.40;99.90
74869;DHT22;63419;42.262;12.210;2022-12-10T03:42:09;13.40;99.90
74869;DHT22;63419;42.262;12.210;2022-12-10T03:44:38;13.40;99.90
74869;DHT22;63419;42.262;12.210;2022-12-10T03:47:10;13.30;99.90
74869;DHT22;63419;42.262;12.210;2022-12-10T03:49:42;13.40;99.90
74869;DHT22;63419;42.262;12.210;2022-12-10T03:52:10;13.40;99.90
74869;DHT22;63419;42.262;12.210;2022-12-10T03:54:37;13.40;99.90
74869;DHT22;63419;42.262;12.210;2022-12-10T03:57:04;13.30;99.90
74869;DHT22;63419;42.262;12.210;2022-12-10T03:59:32;13.30;99.90
74869;DHT22;63419;42.262;12.210;2022-12-10T04:01:59;13.30;99.90
74869;DHT22;63419;42.262;12.210;2022-12-10T04:04:26;13.30;99.90
74869;DHT22;63419;42.262;12.210;2022-12-10T04:06:53;13.30;99.90
74869;DHT22;63419;42.262;12.210;2022-12-10T04:09:21;13.30;99.90
74869;DHT22;63419;42.262;12.210;2022-12-10T04:11:48;13.20;99.90
74869;DHT22;63419;42.262;12.210;2022-12-10T04:14:15;13.20;99.90
74869;DHT22;63419;42.262;12.210;2022-12-10T04:17:01;13.20;99.90
74869;DHT22;63419;42.262;12.210;2022-12-10T04:19:29;13.20;99.90
74869;DHT22;63419;42.262;12.210;2022-12-10T04:21:56;13.20;99.90
74869;DHT22;63419;42.262;12.210;2022-12-10T04:24:41;13.20;99.90
74869;DHT22;63419;42.262;12.210;2022-12-10T04:27:36;13.20;99.90
74869;DHT22;63419;42.262;12.210;2022-12-10T04:30:07;13.20;99.90
74869;DHT22;63419;42.262;12.210;2022-12-10T04:32:37;13.20;99.90
74869;DHT22;63419;42.262;12.210;2022-12-10T04:35:05;13.20;99.90
74869;DHT22;63419;42.262;12.210;2022-12-10T04:37:33;13.10;99.90
74869;DHT22;63419;42.262;12.210;2022-12-10T04:40:00;13.00;99.90
74869;DHT22;63419;42.262;12.210;2022-12-10T04:42:27;13.10;99.90
74869;DHT22;63419;42.262;12.210;2022-12-10T04:44:55;13.10;99.90
74869;DHT22;63419;42.262;12.210;2022-12-10T04:47:22;13.10;99.90
74869;DHT22;63419;42.262;12.210;2022-12-10T04:49:50;13.20;99.90
74869;DHT22;63419;42.262;12.210;2022-12-10T04:52:18;13.30;99.90
74869;DHT22;63419;42.262;12.210;2022-12-10T04:54:45;13.30;99.90
74869;DHT22;63419;42.262;12.210;2022-12-10T04:57:12;13.40;99.90
74869;DHT22;63419;42.262;12.210;2022-12-10T04:59:40;13.30;99.90
74869;DHT22;63419;42.262;12.210;2022-12-10T05:02:08;13.30;99.90
74869;DHT22;63419;42.262;12.210;2022-12-10T05:04:35;13.30;99.90
74869;DHT22;63419;42.262;12.210;2022-12-10T05:07:02;13.30;99.90
74869;DHT22;63419;42.262;12.210;2022-12-10T05:09:30;13.30;99.90
74869;DHT22;63419;42.262;12.210;2022-12-10T05:11:57;13.40;99.90
74869;DHT22;63419;42.262;12.210;2022-12-10T05:14:24;13.30;99.90
74869;DHT22;63419;42.262;12.210;2022-12-10T05:16:52;13.30;99.90
74869;DHT22;63419;42.262;12.210;2022-12-10T05:19:19;13.30;99.90
74869;DHT22;63419;42.262;12.210;2022-12-10T05:21:48;13.30;99.90
74869;DHT22;63419;42.262;12.210;2022-12-10T05:24:35;13.20;99.90
74869;DHT22;63419;42.262;12.210;2022-12-10T05:30:38;13.30;99.90
74869;DHT22;63419;42.262;12.210;2022-12-10T05:33:05;13.30;99.90
74869;DHT22;63419;42.262;12.210;2022-12-10T05:35:32;13.30;99.90
74869;DHT22;63419;42.262;12.210;2022-12-10T05:37:59;13.40;99.90
74869;DHT22;63419;42.262;12.210;2022-12-10T05:40:27;13.30;99.90
74869;DHT22;63419;42.262;12.210;2022-12-10T05:42:54;13.30;99.90
74869;DHT22;63419;42.262;12.210;2022-12-10T05:45:21;13.40;99.90
74869;DHT22;63419;42.262;12.210;2022-12-10T05:47:48;13.30;99.90
74869;DHT22;63419;42.262;12.210;2022-12-10T05:50:15;13.40;99.90
74869;DHT22;63419;42.262;12.210;2022-12-10T05:52:43;13.30;99.90
74869;DHT22;63419;42.262;12.210;2022-12-10T05:55:10;13.30;99.90
74869;DHT22;63419;42.262;12.210;2022-12-10T05:57:37;13.30;99.90
74869;DHT22;63419;42.262;12.210;2022-12-10T06:00:04;13.20;99.90
74869;DHT22;63419;42.262;12.210;2022-12-10T06:02:33;13.30;99.90
74869;DHT22;63419;42.262;12.210;2022-12-10T06:05:00;13.30;99.90
74869;DHT22;63419;42.262;12.210;2022-12-10T06:07:29;13.30;99.90
74869;DHT22;63419;42.262;12.210;2022-12-10T06:09:56;13.30;99.90
74869;DHT22;63419;42.262;12.210;2022-12-10T06:12:24;13.20;99.90
74869;DHT22;63419;42.262;12.210;2022-12-10T06:14:51;13.20;99.90
74869;DHT22;63419;42.262;12.210;2022-12-10T06:17:18;13.20;99.90
74869;DHT22;63419;42.262;12.210;2022-12-10T06:19:45;13.20;99.90
74869;DHT22;63419;42.262;12.210;2022-12-10T06:22:12;13.20;99.90
74869;DHT22;63419;42.262;12.210;2022-12-10T06:24:39;13.20;99.90
74869;DHT22;63419;42.262;12.210;2022-12-10T06:27:06;13.20;99.90
74869;DHT22;63419;42.262;12.210;2022-12-10T06:29:34;13.20;99.90
74869;DHT22;63419;42.262;12.210;2022-12-10T06:32:01;13.20;99.90
74869;DHT22;63419;42.262;12.210;2022-12-10T06:34:28;13.30;99.90
74869;DHT22;63419;42.262;12.210;2022-12-10T06:36:55;13.20;99.90
74869;DHT22;63419;42.262;12.210;2022-12-10T06:39:22;13.20;99.90
74869;DHT22;63419;42.262;12.210;2022-12-10T06:41:49;13.20;99.90
74869;DHT22;63419;42.262;12.210;2022-12-10T06:44:24;13.20;99.90
74869;DHT22;63419;42.262;12.210;2022-12-10T06:46:51;13.20;99.90
74869;DHT22;63419;42.262;12.210;2022-12-10T06:49:18;13.20;99.90
74869;DHT22;63419;42.262;12.210;2022-12-10T06:51:47;13.20;99.90
74869;DHT22;63419;42.262;12.210;2022-12-10T06:54:14;13.10;99.90
74869;DHT22;63419;42.262;12.210;2022-12-10T06:56:41;13.10;99.90
74869;DHT22;63419;42.262;12.210;2022-12-10T06:59:09;13.00;99.90
74869;DHT22;63419;42.262;12.210;2022-12-10T07:01:37;13.00;99.90
74869;DHT22;63419;42.262;12.210;2022-12-10T07:04:05;13.00;99.90
74869;DHT22;63419;42.262;12.210;2022-12-10T07:06:33;13.00;99.90
74869;DHT22;63419;42.262;12.210;2022-12-10T07:09:00;12.90;99.90
74869;DHT22;63419;42.262;12.210;2022-12-10T07:11:27;12.90;99.90
74869;DHT22;63419;42.262;12.210;2022-12-10T07:13:54;12.80;99.90
74869;DHT22;63419;42.262;12.210;2022-12-10T07:16:26;12.80;99.90
74869;DHT22;63419;42.262;12.210;2022-12-10T07:18:57;12.70;99.90
74869;DHT22;63419;42.262;12.210;2022-12-10T07:21:29;12.70;99.90
74869;DHT22;63419;42.262;12.210;2022-12-10T07:24:19;12.70;99.90
74869;DHT22;63419;42.262;12.210;2022-12-10T07:26:47;12.60;99.90
74869;DHT22;63419;42.262;12.210;2022-12-10T07:29:18;12.60;99.90
74869;DHT22;63419;42.262;12.210;2022-12-10T07:31:47;12.60;99.90
74869;DHT22;63419;42.262;12.210;2022-12-10T07:34:16;12.60;99.90
74869;DHT22;63419;42.262;12.210;2022-12-10T07:36:43;12.60;99.90
74869;DHT22;63419;42.262;12.210;2022-12-10T07:39:12;12.60;99.90
74869;DHT22;63419;42.262;12.210;2022-12-10T07:41:47;12.50;99.90
74869;DHT22;63419;42.262;12.210;2022-12-10T07:44:17;12.50;99.90
74869;DHT22;63419;42.262;12.210;2022-12-10T07:46:46;12.60;99.90
74869;DHT22;63419;42.262;12.210;2022-12-10T07:49:15;12.50;99.90
74869;DHT22;63419;42.262;12.210;2022-12-10T07:51:47;12.50;99.90
74869;DHT22;63419;42.262;12.210;2022-12-10T07:54:16;12.50;99.90
74869;DHT22;63419;42.262;12.210;2022-12-10T07:56:45;12.50;99.90
74869;DHT22;63419;42.262;12.210;2022-12-10T07:59:12;12.50;99.90
74869;DHT22;63419;42.262;12.210;2022-12-10T08:01:40;12.50;99.90
74869;DHT22;63419;42.262;12.210;2022-12-10T08:04:08;12.50;99.90
74869;DHT22;63419;42.262;12.210;2022-12-10T08:06:35;12.60;99.90
74869;DHT22;63419;42.262;12.210;2022-12-10T08:09:02;12.60;99.90
74869;DHT22;63419;42.262;12.210;2022-12-10T08:11:30;12.60;99.90
74869;DHT22;63419;42.262;12.210;2022-12-10T08:13:57;12.60;99.90
74869;DHT22;63419;42.262;12.210;2022-12-10T08:16:27;12.60;99.90
74869;DHT22;63419;42.262;12.210;2022-12-10T08:18:59;12.60;99.90
74869;DHT22;63419;42.262;12.210;2022-12-10T08:21:30;12.60;99.90
74869;DHT22;63419;42.262;12.210;2022-12-10T08:23:58;12.50;99.90
74869;DHT22;63419;42.262;12.210;2022-12-10T08:26:29;12.50;99.90
74869;DHT22;63419;42.262;12.210;2022-12-10T08:28:58;12.50;99.90
74869;DHT22;63419;42.262;12.210;2022-12-10T08:31:27;12.60;99.90
74869;DHT22;63419;42.262;12.210;2022-12-10T08:34:04;12.50;99.90
74869;DHT22;63419;42.262;12.210;2022-12-10T08:36:32;12.50;99.90
74869;DHT22;63419;42.262;12.210;2022-12-10T08:38:59;12.50;99.90
74869;DHT22;63419;42.262;12.210;2022-12-10T08:41:26;12.60;99.90
74869;DHT22;63419;42.262;12.210;2022-12-10T08:43:53;12.50;99.90
74869;DHT22;63419;42.262;12.210;2022-12-10T08:46:21;12.50;99.90
74869;DHT22;63419;42.262;12.210;2022-12-10T08:48:49;12.50;99.90
74869;DHT22;63419;42.262;12.210;2022-12-10T08:51:18;12.30;99.90
74869;DHT22;63419;42.262;12.210;2022-12-10T08:53:47;12.20;99.90
74869;DHT22;63419;42.262;12.210;2022-12-10T08:56:14;12.10;99.90
74869;DHT22;63419;42.262;12.210;2022-12-10T08:58:42;12.10;99.90
74869;DHT22;63419;42.262;12.210;2022-12-10T09:01:12;12.00;99.90
74869;DHT22;63419;42.262;12.210;2022-12-10T09:03:41;12.00;99.90
74869;DHT22;63419;42.262;12.210;2022-12-10T09:06:11;12.00;99.90
74869;DHT22;63419;42.262;12.210;2022-12-10T09:08:41;12.00;99.90
74869;DHT22;63419;42.262;12.210;2022-12-10T09:11:15;11.90;99.90
74869;DHT22;63419;42.262;12.210;2022-12-10T09:13:51;11.90;99.90
74869;DHT22;63419;42.262;12.210;2022-12-10T09:16:19;11.80;99.90
74869;DHT22;63419;42.262;12.210;2022-12-10T09:18:47;11.80;99.90
74869;DHT22;63419;42.262;12.210;2022-12-10T09:21:16;11.80;99.90
74869;DHT22;63419;42.262;12.210;2022-12-10T09:23:44;11.70;99.90
74869;DHT22;63419;42.262;12.210;2022-12-10T09:26:14;11.70;99.90
74869;DHT22;63419;42.262;12.210;2022-12-10T09:28:43;11.70;99.90
74869;DHT22;63419;42.262;12.210;2022-12-10T09:31:12;11.70;99.90
74869;DHT22;63419;42.262;12.210;2022-12-10T09:33:48;11.70;99.90
74869;DHT22;63419;42.262;12.210;2022-12-10T09:36:17;11.70;99.90
74869;DHT22;63419;42.262;12.210;2022-12-10T09:38:47;11.70;99.90
74869;DHT22;63419;42.262;12.210;2022-12-10T09:47:26;11.60;99.90
74869;DHT22;63419;42.262;12.210;2022-12-10T09:50:28;11.50;99.90
74869;DHT22;63419;42.262;12.210;2022-12-10T09:53:01;11.50;99.90
74869;DHT22;63419;42.262;12.210;2022-12-10T09:55:40;11.50;99.90
74869;DHT22;63419;42.262;12.210;2022-12-10T09:58:25;11.50;99.90
74869;DHT22;63419;42.262;12.210;2022-12-10T10:01:02;11.50;99.90
74869;DHT22;63419;42.262;12.210;2022-12-10T10:03:37;11.50;99.90
74869;DHT22;63419;42.262;12.210;2022-12-10T10:06:13;11.50;99.90
74869;DHT22;63419;42.262;12.210;2022-12-10T10:08:44;11.60;99.90
74869;DHT22;63419;42.262;12.210;2022-12-10T10:11:24;11.60;99.90
74869;DHT22;63419;42.262;12.210;2022-12-10T10:17:03;11.60;99.90
74869;DHT22;63419;42.262;12.210;2022-12-10T10:19:36;11.60;99.90
74869;DHT22;63419;42.262;12.210;2022-12-10T10:22:05;11.60;99.90
74869;DHT22;63419;42.262;12.210;2022-12-10T10:24:33;11.70;99.90
74869;DHT22;63419;42.262;12.210;2022-12-10T10:27:15;11.80;99.90
74869;DHT22;63419;42.262;12.210;2022-12-10T10:29:45;11.80;99.90
74869;DHT22;63419;42.262;12.210;2022-12-10T10:32:25;11.80;99.90
74869;DHT22;63419;42.262;12.210;2022-12-10T10:35:04;11.90;99.90
74869;DHT22;63419;42.262;12.210;2022-12-10T10:40:03;11.80;99.90
74869;DHT22;63419;42.262;12.210;2022-12-10T10:42:37;11.80;99.90
74869;DHT22;63419;42.262;12.210;2022-12-10T10:45:35;11.80;99.90
74869;DHT22;63419;42.262;12.210;2022-12-10T10:48:23;11.90;99.90
74869;DHT22;63419;42.262;12.210;2022-12-10T10:53:49;11.80;99.90
74869;DHT22;63419;42.262;12.210;2022-12-10T10:56:22;11.80;99.90
74869;DHT22;63419;42.262;12.210;2022-12-10T10:59:02;11.70;99.90
74869;DHT22;63419;42.262;12.210;2022-12-10T11:01:49;11.70;99.90
74869;DHT22;63419;42.262;12.210;2022-12-10T11:07:04;11.70;99.90
74869;DHT22;63419;42.262;12.210;2022-12-10T11:09:40;11.70;99.90
74869;DHT22;63419;42.262;12.210;2022-12-10T11:17:52;11.70;99.90
74869;DHT22;63419;42.262;12.210;2022-12-10T11:20:31;11.80;99.90
74869;DHT22;63419;42.262;12.210;2022-12-10T11:23:10;11.80;99.90
74869;DHT22;63419;42.262;12.210;2022-12-10T11:26:02;11.90;99.90
74869;DHT22;63419;42.262;12.210;2022-12-10T11:50:12;12.30;99.90
74869;DHT22;63419;42.262;12.210;2022-12-10T11:56:22;12.30;99.90
74869;DHT22;63419;42.262;12.210;2022-12-10T12:11:12;11.90;99.90
74869;DHT22;63419;42.262;12.210;2022-12-10T12:14:08;12.00;99.90
74869;DHT22;63419;42.262;12.210;2022-12-10T12:16:49;11.80;99.90
74869;DHT22;63419;42.262;12.210;2022-12-10T12:19:49;11.90;99.90
74869;DHT22;63419;42.262;12.210;2022-12-10T12:22:25;11.90;99.90
74869;DHT22;63419;42.262;12.210;2022-12-10T12:25:06;12.00;99.90
74869;DHT22;63419;42.262;12.210;2022-12-10T12:27:39;12.00;99.90
74869;DHT22;63419;42.262;12.210;2022-12-10T12:30:19;12.10;99.90
74869;DHT22;63419;42.262;12.210;2022-12-10T12:33:11;12.40;99.90
74869;DHT22;63419;42.262;12.210;2022-12-10T12:36:10;12.50;99.90
74869;DHT22;63419;42.262;12.210;2022-12-10T12:53:12;12.50;99.90
74869;DHT22;63419;42.262;12.210;2022-12-10T12:59:04;12.40;99.90
74869;DHT22;63419;42.262;12.210;2022-12-10T13:04:20;12.10;99.90
74869;DHT22;63419;42.262;12.210;2022-12-10T13:09:51;12.10;99.90
74869;DHT22;63419;42.262;12.210;2022-12-10T13:12:51;12.20;99.90
74869;DHT22;63419;42.262;12.210;2022-12-10T13:15:35;12.20;99.90
74869;DHT22;63419;42.262;12.210;2022-12-10T13:21:16;12.20;99.90
74869;DHT22;63419;42.262;12.210;2022-12-10T13:23:54;12.20;99.90
74869;DHT22;63419;42.262;12.210;2022-12-10T13:26:33;12.30;99.90
74869;DHT22;63419;42.262;12.210;2022-12-10T13:29:26;12.40;99.90
74869;DHT22;63419;42.262;12.210;2022-12-10T13:32:20;12.20;99.90
74869;DHT22;63419;42.262;12.210;2022-12-10T13:37:54;13.00;99.90
74869;DHT22;63419;42.262;12.210;2022-12-10T13:43:19;14.20;99.90
74869;DHT22;63419;42.262;12.210;2022-12-10T13:49:22;14.60;99.90
74869;DHT22;63419;42.262;12.210;2022-12-10T13:52:16;14.30;99.90
74869;DHT22;63419;42.262;12.210;2022-12-10T13:55:04;14.70;99.90
74869;DHT22;63419;42.262;12.210;2022-12-10T14:00:53;14.40;99.90
74869;DHT22;63419;42.262;12.210;2022-12-10T14:03:55;14.70;99.90
74869;DHT22;63419;42.262;12.210;2022-12-10T14:06:35;14.90;99.90
74869;DHT22;63419;42.262;12.210;2022-12-10T14:09:12;15.10;99.90
74869;DHT22;63419;42.262;12.210;2022-12-10T14:11:58;15.30;99.90
74869;DHT22;63419;42.262;12.210;2022-12-10T14:14:37;14.80;99.90
74869;DHT22;63419;42.262;12.210;2022-12-10T14:17:13;15.00;99.90
74869;DHT22;63419;42.262;12.210;2022-12-10T14:19:45;14.10;99.90
74869;DHT22;63419;42.262;12.210;2022-12-10T14:22:39;13.60;99.90
74869;DHT22;63419;42.262;12.210;2022-12-10T14:25:21;13.20;99.90
74869;DHT22;63419;42.262;12.210;2022-12-10T14:27:51;13.10;99.90
74869;DHT22;63419;42.262;12.210;2022-12-10T14:30:22;12.80;99.90
74869;DHT22;63419;42.262;12.210;2022-12-10T14:32:54;12.70;99.90
74869;DHT22;63419;42.262;12.210;2022-12-10T14:35:25;12.40;99.90
74869;DHT22;63419;42.262;12.210;2022-12-10T14:37:57;12.40;99.90
74869;DHT22;63419;42.262;12.210;2022-12-10T14:40:44;12.30;99.90
74869;DHT22;63419;42.262;12.210;2022-12-10T14:43:18;12.40;99.90
74869;DHT22;63419;42.262;12.210;2022-12-10T14:46:00;12.50;99.90
74869;DHT22;63419;42.262;12.210;2022-12-10T14:48:30;12.40;99.90
74869;DHT22;63419;42.262;12.210;2022-12-10T14:51:16;12.30;99.90
74869;DHT22;63419;42.262;12.210;2022-12-10T14:53:48;12.30;99.90
74869;DHT22;63419;42.262;12.210;2022-12-10T14:56:30;12.30;99.90
74869;DHT22;63419;42.262;12.210;2022-12-10T14:59:09;12.30;99.90
74869;DHT22;63419;42.262;12.210;2022-12-10T15:01:46;12.50;99.90
74869;DHT22;63419;42.262;12.210;2022-12-10T15:04:17;12.60;99.90
74869;DHT22;63419;42.262;12.210;2022-12-10T15:06:57;12.60;99.90
74869;DHT22;63419;42.262;12.210;2022-12-10T15:09:27;12.50;99.90
74869;DHT22;63419;42.262;12.210;2022-12-10T15:11:59;12.50;99.90
74869;DHT22;63419;42.262;12.210;2022-12-10T15:18:16;12.40;99.90
74869;DHT22;63419;42.262;12.210;2022-12-10T15:20:52;12.30;99.90
74869;DHT22;63419;42.262;12.210;2022-12-10T15:23:33;12.30;99.90
74869;DHT22;63419;42.262;12.210;2022-12-10T15:26:27;12.30;99.90
74869;DHT22;63419;42.262;12.210;2022-12-10T15:32:24;12.00;99.90
74869;DHT22;63419;42.262;12.210;2022-12-10T15:34:54;11.80;99.90
74869;DHT22;63419;42.262;12.210;2022-12-10T15:37:27;11.60;99.90
74869;DHT22;63419;42.262;12.210;2022-12-10T15:40:02;11.60;99.90
74869;DHT22;63419;42.262;12.210;2022-12-10T15:42:39;11.50;99.90
74869;DHT22;63419;42.262;12.210;2022-12-10T15:45:22;11.40;99.90
74869;DHT22;63419;42.262;12.210;2022-12-10T15:47:57;11.40;99.90
74869;DHT22;63419;42.262;12.210;2022-12-10T15:50:26;11.40;99.90
74869;DHT22;63419;42.262;12.210;2022-12-10T15:52:55;11.30;99.90
74869;DHT22;63419;42.262;12.210;2022-12-10T15:55:22;11.40;99.90
74869;DHT22;63419;42.262;12.210;2022-12-10T15:57:49;11.30;99.90
74869;DHT22;63419;42.262;12.210;2022-12-10T16:00:22;11.20;99.90
74869;DHT22;63419;42.262;12.210;2022-12-10T16:02:57;11.20;99.90
74869;DHT22;63419;42.262;12.210;2022-12-10T16:05:32;11.10;99.90
74869;DHT22;63419;42.262;12.210;2022-12-10T16:08:24;11.00;99.90
74869;DHT22;63419;42.262;12.210;2022-12-10T16:11:05;11.00;99.90
74869;DHT22;63419;42.262;12.210;2022-12-10T16:13:49;11.00;99.90
74869;DHT22;63419;42.262;12.210;2022-12-10T16:16:20;10.90;99.90
74869;DHT22;63419;42.262;12.210;2022-12-10T16:18:47;10.90;99.90
74869;DHT22;63419;42.262;12.210;2022-12-10T16:21:14;10.90;99.90
74869;DHT22;63419;42.262;12.210;2022-12-10T16:23:42;10.80;99.90
74869;DHT22;63419;42.262;12.210;2022-12-10T16:26:16;10.70;99.90
74869;DHT22;63419;42.262;12.210;2022-12-10T16:28:49;10.70;99.90
74869;DHT22;63419;42.262;12.210;2022-12-10T16:31:19;10.70;99.90
74869;DHT22;63419;42.262;12.210;2022-12-10T16:33:47;10.60;99.90
74869;DHT22;63419;42.262;12.210;2022-12-10T16:36:19;10.60;99.90
74869;DHT22;63419;42.262;12.210;2022-12-10T16:38:46;10.60;99.90
74869;DHT22;63419;42.262;12.210;2022-12-10T16:41:32;10.60;99.90
74869;DHT22;63419;42.262;12.210;2022-12-10T16:43:59;10.50;99.90
74869;DHT22;63419;42.262;12.210;2022-12-10T16:46:27;10.50;99.90
74869;DHT22;63419;42.262;12.210;2022-12-10T16:48:54;10.50;99.90
74869;DHT22;63419;42.262;12.210;2022-12-10T16:51:23;10.50;99.90
74869;DHT22;63419;42.262;12.210;2022-12-10T16:53:55;10.50;99.90
74869;DHT22;63419;42.262;12.210;2022-12-10T16:56:23;10.50;99.90
74869;DHT22;63419;42.262;12.210;2022-12-10T16:58:50;10.50;99.90
74869;DHT22;63419;42.262;12.210;2022-12-10T17:01:26;10.50;99.90
74869;DHT22;63419;42.262;12.210;2022-12-10T17:03:55;10.50;99.90
74869;DHT22;63419;42.262;12.210;2022-12-10T17:06:23;10.60;99.90
74869;DHT22;63419;42.262;12.210;2022-12-10T17:08:51;10.60;99.90
74869;DHT22;63419;42.262;12.210;2022-12-10T17:11:24;10.70;99.90
74869;DHT22;63419;42.262;12.210;2022-12-10T17:14:30;10.70;99.90
74869;DHT22;63419;42.262;12.210;2022-12-10T17:17:06;10.80;99.90
74869;DHT22;63419;42.262;12.210;2022-12-10T17:19:37;10.80;99.90
74869;DHT22;63419;42.262;12.210;2022-12-10T17:22:09;10.80;99.90
74869;DHT22;63419;42.262;12.210;2022-12-10T17:24:37;10.80;99.90
74869;DHT22;63419;42.262;12.210;2022-12-10T17:27:07;10.80;99.90
74869;DHT22;63419;42.262;12.210;2022-12-10T17:29:40;10.70;99.90
74869;DHT22;63419;42.262;12.210;2022-12-10T17:32:13;10.70;99.90
74869;DHT22;63419;42.262;12.210;2022-12-10T17:34:41;10.70;99.90
74869;DHT22;63419;42.262;12.210;2022-12-10T17:37:17;10.70;99.90
74869;DHT22;63419;42.262;12.210;2022-12-10T17:39:46;10.70;99.90
74869;DHT22;63419;42.262;12.210;2022-12-10T17:42:13;10.70;99.90
74869;DHT22;63419;42.262;12.210;2022-12-10T17:44:40;10.80;99.90
74869;DHT22;63419;42.262;12.210;2022-12-10T17:47:24;10.80;99.90
74869;DHT22;63419;42.262;12.210;2022-12-10T17:49:54;10.70;99.90
74869;DHT22;63419;42.262;12.210;2022-12-10T17:52:21;10.80;99.90
74869;DHT22;63419;42.262;12.210;2022-12-10T17:54:49;10.80;99.90
74869;DHT22;63419;42.262;12.210;2022-12-10T17:57:23;10.80;99.90
74869;DHT22;63419;42.262;12.210;2022-12-10T17:59:52;10.80;99.90
74869;DHT22;63419;42.262;12.210;2022-12-10T18:02:19;10.80;99.90
74869;DHT22;63419;42.262;12.210;2022-12-10T18:04:47;10.70;99.90
74869;DHT22;63419;42.262;12.210;2022-12-10T18:07:17;10.50;99.90
74869;DHT22;63419;42.262;12.210;2022-12-10T18:09:45;10.50;99.90
74869;DHT22;63419;42.262;12.210;2022-12-10T18:12:12;10.40;99.90
74869;DHT22;63419;42.262;12.210;2022-12-10T18:14:40;10.30;99.90
74869;DHT22;63419;42.262;12.210;2022-12-10T18:17:13;10.20;99.90